createdAt,value
2019-04-21T00:00:05.886Z,8.90
2019-04-21T00:10:26.762Z,7.89
2019-04-21T00:20:12.357Z,7.83
2019-04-21T00:30:21.201Z,7.57
2019-04-21T00:40:27.028Z,7.07
2019-04-21T00:50:24.542Z,7.14
2019-04-21T01:00:21.890Z,7.22
2019-04-21T01:10:20.482Z,7.09
2019-04-21T01:20:16.658Z,6.90
2019-04-21T01:30:22.027Z,6.90
2019-04-21T01:40:22.490Z,6.69
2019-04-21T01:50:20.905Z,6.18
2019-04-21T02:00:12.922Z,6.00
2019-04-21T02:10:26.483Z,5.95
2019-04-21T02:20:15.117Z,5.62
2019-04-21T02:40:38.273Z,5.67
2019-04-21T03:20:33.178Z,4.72
2019-04-21T03:40:31.967Z,4.24
2019-04-21T04:10:31.086Z,4.13
2019-04-21T04:20:27.718Z,3.92
2019-04-21T04:30:37.675Z,4.47
2019-04-21T04:40:30.473Z,5.16
2019-04-21T04:50:38.943Z,6.31
2019-04-21T05:10:38.188Z,7.23
2019-04-21T05:20:22.647Z,8.09
2019-04-21T05:30:21.809Z,8.56
2019-04-21T05:40:17.202Z,9.27
2019-04-21T05:50:16.428Z,10.43
2019-04-21T06:00:38.863Z,11.13
2019-04-21T06:10:26.968Z,10.67
2019-04-21T06:20:26.894Z,11.72
2019-04-21T06:30:25.094Z,12.71
2019-04-21T06:40:27.569Z,13.17
2019-04-21T06:50:29.737Z,13.83
2019-04-21T07:00:24.572Z,13.27
2019-04-21T07:10:25.852Z,14.47
2019-04-21T07:20:21.313Z,14.73
2019-04-21T07:40:23.018Z,15.35
2019-04-21T07:50:26.174Z,16.95
2019-04-21T08:00:28.709Z,17.72
2019-04-21T08:10:20.875Z,17.62
2019-04-21T08:20:18.293Z,17.75
2019-04-21T08:30:25.513Z,19.46
2019-04-21T08:40:26.102Z,18.66
2019-04-21T08:50:20.366Z,19.57
2019-04-21T09:00:25.848Z,20.26
2019-04-21T09:10:27.942Z,20.77
2019-04-21T09:20:24.708Z,19.95
2019-04-21T09:30:05.010Z,20.71
2019-04-21T09:40:02.991Z,20.91
2019-04-21T09:50:04.728Z,20.98
2019-04-21T10:00:08.515Z,20.59
2019-04-21T10:10:08.331Z,21.80
2019-04-21T10:20:03.145Z,21.18
2019-04-21T10:30:03.675Z,21.80
2019-04-21T10:40:03.398Z,21.49
2019-04-21T10:50:08.718Z,22.16
2019-04-21T11:00:04.198Z,21.81
2019-04-21T11:10:02.447Z,22.17
2019-04-21T11:20:02.942Z,21.77
2019-04-21T11:30:03.351Z,21.99
2019-04-21T11:40:11.243Z,22.24
2019-04-21T11:50:08.510Z,22.53
2019-04-21T12:00:03.886Z,22.74
2019-04-21T12:10:08.940Z,22.58
2019-04-21T12:20:03.316Z,23.59
2019-04-21T12:30:09.430Z,23.49
2019-04-21T12:40:03.245Z,23.30
2019-04-21T12:50:02.878Z,23.15
2019-04-21T13:00:04.711Z,23.63
2019-04-21T13:10:02.617Z,22.13
2019-04-21T13:20:03.434Z,23.04
2019-04-21T13:30:04.143Z,23.07
2019-04-21T13:40:24.709Z,23.05
2019-04-21T13:50:03.500Z,22.55
2019-04-21T14:00:09.132Z,22.81
2019-04-21T14:10:06.285Z,22.35
2019-04-21T14:20:09.108Z,23.14
2019-04-21T14:30:02.923Z,22.78
2019-04-21T14:40:07.287Z,22.87
2019-04-21T14:50:03.038Z,22.23
2019-04-21T15:00:09.166Z,22.48
2019-04-21T15:10:11.446Z,22.76
2019-04-21T15:20:11.021Z,22.51
2019-04-21T15:30:03.025Z,22.15
2019-04-21T15:40:17.951Z,22.67
2019-04-21T15:50:07.168Z,22.16
2019-04-21T16:00:04.496Z,21.64
2019-04-21T16:10:04.838Z,21.63
2019-04-21T16:20:04.072Z,21.53
2019-04-21T16:30:03.875Z,21.30
2019-04-21T16:40:03.349Z,21.32
2019-04-21T16:50:03.404Z,20.96
2019-04-21T17:00:08.774Z,20.68
2019-04-21T17:10:04.435Z,20.39
2019-04-21T17:20:15.579Z,20.19
2019-04-21T17:30:04.280Z,19.99
2019-04-21T17:40:05.185Z,19.67
2019-04-21T17:50:04.075Z,19.22
2019-04-21T18:00:23.340Z,18.79
2019-04-21T18:10:21.696Z,18.17
2019-04-21T18:20:03.716Z,17.75
2019-04-21T18:30:04.363Z,17.48
2019-04-21T18:40:09.332Z,17.09
2019-04-21T18:50:03.959Z,17.15
2019-04-21T19:00:08.471Z,16.63
2019-04-21T19:10:26.431Z,16.19
2019-04-21T19:20:19.214Z,15.96
2019-04-21T19:30:28.110Z,15.30
2019-04-21T19:40:14.039Z,14.65
2019-04-21T19:50:22.956Z,15.31
2019-04-21T20:00:04.095Z,14.99
2019-04-21T20:10:20.217Z,15.05
2019-04-21T20:20:03.999Z,14.87
2019-04-21T20:30:19.901Z,14.16
2019-04-21T20:40:07.977Z,13.93
2019-04-21T20:50:15.051Z,13.67
2019-04-21T21:00:18.185Z,13.40
2019-04-21T21:10:20.292Z,13.10
2019-04-21T21:20:24.177Z,12.78
2019-04-21T21:30:18.178Z,12.75
2019-04-21T21:40:21.665Z,12.30
2019-04-21T21:50:10.705Z,12.06
2019-04-21T22:00:08.334Z,11.46
2019-04-21T22:10:02.467Z,11.32
2019-04-21T22:20:26.945Z,11.16
2019-04-21T22:30:07.386Z,10.07
2019-04-21T22:40:14.233Z,9.65
2019-04-21T22:50:04.296Z,11.10
2019-04-21T23:00:07.826Z,10.72
2019-04-21T23:10:03.458Z,10.68
2019-04-21T23:20:22.306Z,10.19
2019-04-21T23:30:25.368Z,9.67
2019-04-21T23:40:09.206Z,10.34
2019-04-21T23:50:16.803Z,9.30
